Time;durP1;ratioP1;P1;durP2;ratioP2;P2;SDS_P1;SDS_P2;PMS_P1;PMS_P2;Temp;Humidity;BMP_temperature;BMP_pressure;BME280_temperature;BME280_humidity;BME280_pressure;Samples;Min_cycle;Max_cycle;Signal;HPM_P1;HPM_P2
2021/12/18 00:00:53;;;;;;;15.80;8.40;;;5.80;84.40;;;;;;6251153;28;20073;-79
2021/12/18 00:03:59;;;;;;;21.30;10.20;;;5.70;84.60;;;;;;6253051;28;20053;-81
2021/12/18 00:07:01;;;;;;;17.10;8.60;;;5.70;85.00;;;;;;6250317;28;20501;-82
2021/12/18 00:10:04;;;;;;;17.92;9.65;;;5.60;85.20;;;;;;6250152;28;20045;-82
2021/12/18 00:13:06;;;;;;;15.20;8.25;;;5.60;85.50;;;;;;6250601;28;20048;-79
2021/12/18 00:16:08;;;;;;;21.35;10.43;;;5.60;85.50;;;;;;6249182;28;20538;-79
2021/12/18 00:19:11;;;;;;;18.85;10.35;;;5.60;85.60;;;;;;6250785;28;20056;-81
2021/12/18 00:22:13;;;;;;;17.27;9.50;;;5.50;85.50;;;;;;6250744;28;20048;-81
2021/12/18 00:25:15;;;;;;;19.98;9.82;;;5.50;85.60;;;;;;6250125;28;20053;-81
2021/12/18 00:28:17;;;;;;;21.58;10.45;;;5.50;85.70;;;;;;6250095;28;20045;-81
2021/12/18 00:31:19;;;;;;;21.55;9.73;;;5.50;85.70;;;;;;6250362;28;20057;-81
2021/12/18 00:34:22;;;;;;;22.58;11.00;;;5.50;85.80;;;;;;6248567;28;20490;-80
2021/12/18 00:37:24;;;;;;;17.73;10.27;;;5.50;85.80;;;;;;6249733;28;20041;-81
2021/12/18 00:40:30;;;;;;;21.40;10.80;;;5.40;86.10;;;;;;6250001;28;20047;-81
2021/12/18 00:43:35;;;;;;;23.40;11.93;;;5.40;86.20;;;;;;6250821;28;20052;-80
2021/12/18 00:46:40;;;;;;;20.63;9.50;;;5.40;86.30;;;;;;6250952;28;20041;-80
2021/12/18 00:49:43;;;;;;;22.52;11.65;;;5.40;86.40;;;;;;6250388;28;20499;-81
2021/12/18 00:52:46;;;;;;;22.05;10.43;;;5.30;86.30;;;;;;6251951;28;20045;-79
2021/12/18 00:55:50;;;;;;;17.17;9.43;;;5.30;86.30;;;;;;6253900;28;20153;-81
2021/12/18 00:58:52;;;;;;;22.05;9.15;;;5.30;86.60;;;;;;6253319;28;20064;-80
2021/12/18 01:01:55;;;;;;;22.85;11.63;;;5.30;86.70;;;;;;6251240;28;20131;-80
2021/12/18 01:04:58;;;;;;;19.90;9.40;;;5.30;86.90;;;;;;6252907;28;20045;-79
2021/12/18 01:08:01;;;;;;;18.88;8.68;;;5.20;87.10;;;;;;6250740;28;20037;-79
2021/12/18 01:11:26;;;;;;;15.70;8.02;;;5.10;87.30;;;;;;6251423;28;20391;-81
2021/12/18 01:14:42;;;;;;;23.20;11.38;;;5.10;87.50;;;;;;6251757;28;20103;-81
2021/12/18 01:24:25;;;;;;;20.23;11.32;;;5.00;87.90;;;;;;6250300;28;20042;-79
2021/12/18 01:27:27;;;;;;;20.38;9.43;;;5.00;88.10;;;;;;6250985;28;20195;-80
2021/12/18 01:30:29;;;;;;;25.35;11.88;;;4.90;88.20;;;;;;6255344;28;20049;-79
2021/12/18 01:33:31;;;;;;;23.92;10.10;;;4.90;88.20;;;;;;6274714;28;20076;-78
2021/12/18 01:36:37;;;;;;;21.27;10.38;;;4.90;88.30;;;;;;6263611;28;20461;-81
2021/12/18 01:39:39;;;;;;;18.35;9.60;;;4.90;88.40;;;;;;6255709;28;20049;-81
2021/12/18 01:46:16;;;;;;;20.35;11.10;;;4.90;88.40;;;;;;6254789;28;20041;-81
2021/12/18 01:52:39;;;;;;;18.27;8.68;;;4.90;88.60;;;;;;6255038;28;20033;-81
2021/12/18 01:55:44;;;;;;;19.20;9.73;;;4.90;88.60;;;;;;6253811;28;20105;-79
2021/12/18 01:58:46;;;;;;;25.75;13.00;;;4.90;88.60;;;;;;6254718;28;20068;-79
2021/12/18 02:01:48;;;;;;;25.05;12.00;;;4.90;88.70;;;;;;6253325;28;20514;-82
2021/12/18 02:04:49;;;;;;;27.17;11.70;;;4.90;88.70;;;;;;6251930;28;20057;-79
2021/12/18 02:07:53;;;;;;;20.23;8.52;;;4.90;88.70;;;;;;6252487;28;20056;-81
2021/12/18 02:10:59;;;;;;;19.85;10.10;;;4.80;88.80;;;;;;6255285;28;20462;-81
2021/12/18 02:14:22;;;;;;;21.73;10.27;;;4.80;89.00;;;;;;6255117;28;20064;-81
2021/12/18 02:20:52;;;;;;;22.55;11.50;;;4.80;89.20;;;;;;6214337;28;20052;-81
2021/12/18 02:23:54;;;;;;;23.23;9.80;;;4.80;89.00;;;;;;6255741;28;20056;-81
2021/12/18 02:26:57;;;;;;;23.65;13.48;;;4.80;89.30;;;;;;6257003;28;20131;-81
2021/12/18 02:30:03;;;;;;;26.52;12.43;;;4.70;89.30;;;;;;6257340;28;20080;-81
2021/12/18 02:33:05;;;;;;;21.48;10.75;;;4.80;89.60;;;;;;6258701;28;20049;-80
2021/12/18 02:36:09;;;;;;;26.83;12.73;;;4.80;89.60;;;;;;6247838;28;20622;-80
2021/12/18 02:39:21;;;;;;;26.20;11.27;;;4.70;89.50;;;;;;6248180;28;20184;-79
2021/12/18 02:42:23;;;;;;;27.27;12.40;;;4.70;89.80;;;;;;6247888;28;20494;-80
2021/12/18 02:45:25;;;;;;;29.88;13.43;;;4.70;90.00;;;;;;6249954;28;20052;-79
2021/12/18 02:48:29;;;;;;;27.75;13.00;;;4.80;89.80;;;;;;6252426;28;20050;-79
2021/12/18 02:51:32;;;;;;;25.48;11.93;;;4.80;89.80;;;;;;6254382;28;20134;-80
2021/12/18 02:54:34;;;;;;;23.25;11.52;;;4.80;89.80;;;;;;6254670;28;20049;-80
2021/12/18 02:57:36;;;;;;;25.20;12.05;;;4.80;89.80;;;;;;6257965;28;20075;-79
2021/12/18 03:00:38;;;;;;;27.55;13.20;;;4.80;89.70;;;;;;6247944;28;20063;-79
2021/12/18 03:03:41;;;;;;;27.80;13.80;;;4.80;89.60;;;;;;6251804;28;20049;-78
2021/12/18 03:06:48;;;;;;;18.92;9.80;;;4.80;89.60;;;;;;6250860;28;20585;-80
2021/12/18 03:23:34;;;;;;;23.40;11.43;;;5.00;89.10;;;;;;6251770;28;20050;-79
2021/12/18 03:26:35;;;;;;;29.50;13.75;;;5.00;89.10;;;;;;6249901;28;20053;-80
2021/12/18 03:29:37;;;;;;;31.00;14.63;;;5.00;88.90;;;;;;6250452;28;20128;-79
2021/12/18 03:32:39;;;;;;;21.55;12.23;;;5.10;88.80;;;;;;6250040;28;20116;-79
2021/12/18 03:35:42;;;;;;;32.15;13.82;;;5.00;88.80;;;;;;6249208;28;20069;-80
2021/12/18 03:38:45;;;;;;;24.25;11.50;;;5.00;88.80;;;;;;6250130;28;20053;-79
2021/12/18 03:41:47;;;;;;;25.17;12.48;;;5.00;88.80;;;;;;6249229;28;20056;-78
2021/12/18 03:44:49;;;;;;;26.88;13.18;;;5.00;88.80;;;;;;6251205;28;20055;-80
2021/12/18 03:47:52;;;;;;;28.40;12.60;;;5.10;88.70;;;;;;6251507;28;20049;-80
2021/12/18 03:50:53;;;;;;;23.23;10.38;;;5.10;88.50;;;;;;6251735;28;20045;-80
2021/12/18 03:53:57;;;;;;;26.45;12.60;;;5.10;88.30;;;;;;6251544;28;20473;-79
2021/12/18 03:56:59;;;;;;;20.02;8.82;;;5.10;88.30;;;;;;6251309;28;20071;-80
2021/12/18 04:00:01;;;;;;;22.92;9.35;;;5.10;88.20;;;;;;6251122;28;20514;-80
2021/12/18 04:03:03;;;;;;;26.83;11.15;;;5.00;88.20;;;;;;6249420;28;20152;-79
2021/12/18 04:06:05;;;;;;;23.00;10.23;;;5.00;88.40;;;;;;6249855;28;20053;-80
2021/12/18 04:09:10;;;;;;;26.08;12.00;;;5.10;88.10;;;;;;6250231;28;20143;-79
2021/12/18 04:12:12;;;;;;;24.90;10.43;;;5.10;88.00;;;;;;6249482;28;20045;-79
2021/12/18 04:15:14;;;;;;;25.25;11.75;;;5.10;88.00;;;;;;6286028;22;20045;-83
2021/12/18 04:18:16;;;;;;;23.98;11.32;;;5.20;87.80;;;;;;6259215;28;20056;-79
2021/12/18 04:21:18;;;;;;;31.10;11.75;;;5.20;87.70;;;;;;6248369;28;20077;-82
2021/12/18 04:24:22;;;;;;;31.08;12.13;;;5.20;87.50;;;;;;6248457;28;20046;-82
2021/12/18 04:27:24;;;;;;;21.40;12.00;;;5.30;87.10;;;;;;6228663;28;20481;-81
2021/12/18 04:30:26;;;;;;;24.95;11.02;;;5.20;86.90;;;;;;6228853;28;20422;-81
2021/12/18 04:33:28;;;;;;;25.52;12.25;;;5.20;87.00;;;;;;6245327;28;20180;-82
2021/12/18 04:36:29;;;;;;;23.58;10.93;;;5.20;87.30;;;;;;6253220;28;20052;-82
2021/12/18 04:39:33;;;;;;;19.77;9.88;;;5.30;87.30;;;;;;6253824;28;20478;-82
2021/12/18 04:42:34;;;;;;;26.92;12.57;;;5.30;86.80;;;;;;6253734;28;20434;-83
2021/12/18 04:45:36;;;;;;;23.40;11.07;;;5.30;87.00;;;;;;6252920;28;20046;-83
2021/12/18 04:48:38;;;;;;;26.23;10.55;;;5.30;86.70;;;;;;6240569;28;20048;-82
2021/12/18 04:51:40;;;;;;;26.75;11.73;;;5.40;86.50;;;;;;6229477;28;20188;-83
2021/12/18 04:54:44;;;;;;;24.08;11.55;;;5.40;86.30;;;;;;6228505;28;20225;-85
2021/12/18 04:57:46;;;;;;;30.17;13.75;;;5.50;86.30;;;;;;6228767;28;20102;-82
2021/12/18 05:00:48;;;;;;;23.33;10.70;;;5.40;86.10;;;;;;6227738;28;20046;-82
2021/12/18 05:03:50;;;;;;;29.48;13.25;;;5.40;86.00;;;;;;6239982;28;20046;-83
2021/12/18 05:06:53;;;;;;;23.13;10.80;;;5.40;86.00;;;;;;6228784;28;20046;-81
2021/12/18 05:09:56;;;;;;;20.67;9.82;;;5.40;85.90;;;;;;6235568;28;20446;-81
2021/12/18 05:12:58;;;;;;;26.00;11.65;;;5.50;86.70;;;;;;6227524;28;20808;-83
2021/12/18 05:16:00;;;;;;;17.50;8.38;;;5.50;85.70;;;;;;6227195;28;20041;-84
2021/12/18 05:19:02;;;;;;;23.27;11.00;;;5.50;85.50;;;;;;6244064;28;20503;-81
2021/12/18 05:22:04;;;;;;;25.50;12.40;;;5.50;85.60;;;;;;6252727;28;20045;-80
2021/12/18 05:25:08;;;;;;;22.85;11.32;;;5.60;85.60;;;;;;6252260;28;20056;-84
2021/12/18 05:28:10;;;;;;;28.73;11.55;;;5.50;85.10;;;;;;6253120;28;20109;-81
2021/12/18 05:31:16;;;;;;;23.67;11.43;;;5.50;85.50;;;;;;6252361;28;20136;-81
2021/12/18 05:34:23;;;;;;;25.75;12.80;;;5.50;85.70;;;;;;6252966;28;20054;-82
2021/12/18 05:37:42;;;;;;;27.88;12.63;;;5.70;85.60;;;;;;6251990;28;20064;-81
2021/12/18 05:40:46;;;;;;;27.75;13.30;;;5.70;84.80;;;;;;6253825;28;20257;-84
2021/12/18 05:43:47;;;;;;;17.42;9.32;;;5.70;84.70;;;;;;6253673;28;20147;-82
2021/12/18 05:46:50;;;;;;;30.80;12.95;;;5.70;84.70;;;;;;6254815;28;20049;-82
2021/12/18 05:49:52;;;;;;;15.40;8.05;;;5.70;84.60;;;;;;6238608;28;20085;-84
2021/12/18 05:52:55;;;;;;;19.80;9.80;;;5.60;84.90;;;;;;6228405;28;20042;-84
2021/12/18 05:55:58;;;;;;;25.13;11.13;;;5.50;85.00;;;;;;6228318;28;20052;-81
2021/12/18 05:59:00;;;;;;;23.67;11.15;;;5.40;85.30;;;;;;6230299;28;20103;-84
2021/12/18 06:02:01;;;;;;;26.17;10.63;;;5.40;85.70;;;;;;6229429;28;20426;-83
2021/12/18 06:05:05;;;;;;;31.58;12.30;;;5.50;85.70;;;;;;6228652;28;20054;-85
2021/12/18 06:08:11;;;;;;;22.83;10.52;;;5.60;85.50;;;;;;6229002;28;20045;-85
2021/12/18 06:11:16;;;;;;;24.88;10.35;;;5.50;85.20;;;;;;6229064;28;20422;-82
2021/12/18 06:14:18;;;;;;;24.75;10.48;;;5.40;85.40;;;;;;6228530;28;20128;-82
2021/12/18 06:17:19;;;;;;;22.60;9.98;;;5.50;85.70;;;;;;6242823;28;20160;-81
2021/12/18 06:20:22;;;;;;;20.00;9.35;;;5.40;85.40;;;;;;6247669;28;20052;-82
2021/12/18 06:23:23;;;;;;;23.85;10.07;;;5.40;85.70;;;;;;6251600;28;20085;-84
2021/12/18 06:26:27;;;;;;;24.40;10.40;;;5.40;85.80;;;;;;6226560;28;20140;-81
2021/12/18 06:29:30;;;;;;;27.85;11.25;;;5.40;86.00;;;;;;6226929;28;20046;-83
2021/12/18 06:32:31;;;;;;;31.73;12.52;;;5.50;85.90;;;;;;6227131;28;20083;-80
2021/12/18 06:35:33;;;;;;;22.92;10.65;;;5.60;85.70;;;;;;6226239;28;20523;-82
2021/12/18 06:38:35;;;;;;;20.00;10.00;;;5.70;85.10;;;;;;6226948;28;20058;-82
2021/12/18 06:41:38;;;;;;;25.02;10.63;;;5.80;84.70;;;;;;6226567;28;20081;-82
2021/12/18 06:44:40;;;;;;;26.60;11.48;;;5.80;84.30;;;;;;6225940;28;20104;-82
2021/12/18 06:47:42;;;;;;;23.67;11.13;;;5.70;84.50;;;;;;6234308;28;20053;-81
2021/12/18 06:50:43;;;;;;;19.58;9.55;;;5.80;84.40;;;;;;6246636;28;20399;-81
2021/12/18 06:53:45;;;;;;;27.20;10.43;;;5.70;84.40;;;;;;6250396;28;20049;-82
2021/12/18 06:56:49;;;;;;;21.27;9.57;;;5.70;84.60;;;;;;6249604;28;20056;-81
2021/12/18 06:59:52;;;;;;;25.25;12.18;;;5.60;84.60;;;;;;6249594;28;20092;-80
2021/12/18 07:02:54;;;;;;;25.20;10.70;;;5.60;84.80;;;;;;6241594;28;20137;-82
2021/12/18 07:05:56;;;;;;;20.73;10.10;;;5.70;84.70;;;;;;6224813;28;20046;-82
2021/12/18 07:08:57;;;;;;;21.77;9.13;;;5.60;84.60;;;;;;6225057;28;20061;-81
2021/12/18 07:12:00;;;;;;;38.90;10.85;;;5.60;84.90;;;;;;6225437;28;20131;-81
2021/12/18 07:15:03;;;;;;;17.38;8.88;;;5.60;85.00;;;;;;6225368;28;20078;-81
2021/12/18 07:18:05;;;;;;;27.08;10.85;;;5.70;84.80;;;;;;6247907;28;20042;-82
2021/12/18 07:21:07;;;;;;;24.40;9.98;;;5.70;84.90;;;;;;6225244;28;20049;-83
2021/12/18 07:24:08;;;;;;;20.02;9.73;;;5.70;84.70;;;;;;6225246;28;20152;-83
2021/12/18 07:27:12;;;;;;;19.48;7.47;;;5.70;84.60;;;;;;6226140;28;20130;-83
2021/12/18 07:30:15;;;;;;;19.60;9.65;;;5.50;85.30;;;;;;6229553;28;20451;-83
2021/12/18 07:33:17;;;;;;;20.83;8.45;;;5.50;85.20;;;;;;6228190;28;20525;-82
2021/12/18 07:36:19;;;;;;;23.38;8.98;;;5.50;85.30;;;;;;6225815;28;20499;-81
2021/12/18 07:39:20;;;;;;;25.90;10.48;;;5.50;85.40;;;;;;6226564;28;20053;-83
2021/12/18 07:42:24;;;;;;;22.85;9.00;;;5.40;85.50;;;;;;6225575;28;20081;-82
2021/12/18 07:45:25;;;;;;;21.90;9.27;;;5.40;85.60;;;;;;6227243;28;20052;-82
2021/12/18 07:48:27;;;;;;;22.25;9.77;;;5.40;85.40;;;;;;6241337;28;20041;-82
2021/12/18 07:51:29;;;;;;;28.45;10.60;;;5.50;85.70;;;;;;6250846;28;20056;-79
2021/12/18 07:54:31;;;;;;;22.00;8.63;;;5.50;85.50;;;;;;6216833;28;20053;-82
2021/12/18 07:57:34;;;;;;;21.50;10.38;;;5.50;85.50;;;;;;6250539;28;20050;-83
2021/12/18 08:00:36;;;;;;;20.52;9.88;;;5.50;85.10;;;;;;6250195;28;20045;-81
2021/12/18 08:03:38;;;;;;;21.88;10.50;;;5.60;85.50;;;;;;6254926;28;20092;-82
2021/12/18 08:06:39;;;;;;;25.83;11.38;;;5.50;84.80;;;;;;6255269;28;20441;-84
2021/12/18 08:09:41;;;;;;;23.80;10.80;;;5.50;85.10;;;;;;6254726;28;20045;-82
2021/12/18 08:12:44;;;;;;;22.13;10.23;;;5.40;86.00;;;;;;6254218;28;20053;-81
2021/12/18 08:15:46;;;;;;;22.50;10.00;;;5.40;85.50;;;;;;6254101;28;20530;-81
2021/12/18 08:18:48;;;;;;;24.90;9.60;;;5.30;85.60;;;;;;6254873;28;20175;-81
2021/12/18 08:21:50;;;;;;;17.98;7.68;;;5.40;85.90;;;;;;6273162;28;20130;-82
2021/12/18 08:24:52;;;;;;;22.48;10.02;;;5.40;85.80;;;;;;6278858;28;20037;-79
2021/12/18 08:27:55;;;;;;;22.35;9.27;;;5.40;85.30;;;;;;6279581;28;20053;-82
2021/12/18 08:30:57;;;;;;;15.07;7.63;;;5.40;85.60;;;;;;6278940;28;20076;-80
2021/12/18 08:33:59;;;;;;;20.58;8.05;;;5.50;85.10;;;;;;6278682;28;20131;-79
2021/12/18 08:37:01;;;;;;;21.92;9.13;;;5.40;85.10;;;;;;6278561;28;20049;-79
2021/12/18 08:40:03;;;;;;;20.63;8.75;;;5.60;85.20;;;;;;6278670;28;20720;-78
2021/12/18 08:43:06;;;;;;;24.58;10.65;;;5.50;84.70;;;;;;6282134;28;20049;-79
2021/12/18 08:46:08;;;;;;;14.15;7.65;;;5.50;84.70;;;;;;6278275;28;20064;-80
2021/12/18 08:49:10;;;;;;;21.40;8.23;;;5.50;84.70;;;;;;6268995;28;20414;-79
2021/12/18 08:52:12;;;;;;;19.42;8.15;;;5.60;84.50;;;;;;6277385;28;20477;-78
2021/12/18 08:55:14;;;;;;;17.70;7.07;;;5.40;84.30;;;;;;6277296;28;20045;-79
2021/12/18 08:58:18;;;;;;;20.98;10.10;;;5.40;84.80;;;;;;6276853;28;20467;-79
2021/12/18 09:01:21;;;;;;;25.40;11.43;;;5.60;87.80;;;;;;6276828;28;20064;-80
2021/12/18 09:04:25;;;;;;;20.98;9.57;;;5.70;84.20;;;;;;6276539;28;20507;-78
2021/12/18 09:07:27;;;;;;;22.30;9.05;;;5.60;84.20;;;;;;6279175;28;20049;-78
2021/12/18 09:10:29;;;;;;;20.55;8.13;;;5.70;84.10;;;;;;6280117;28;20410;-79
2021/12/18 09:13:32;;;;;;;12.43;5.40;;;5.80;83.80;;;;;;6277811;28;20041;-80
2021/12/18 09:16:34;;;;;;;19.13;9.07;;;6.00;83.40;;;;;;6276095;28;20052;-80
2021/12/18 09:19:36;;;;;;;21.05;8.50;;;5.90;83.30;;;;;;6270489;28;20053;-78
2021/12/18 09:22:38;;;;;;;17.45;7.13;;;6.00;83.50;;;;;;6279642;28;20049;-79
2021/12/18 09:25:40;;;;;;;13.15;6.47;;;6.00;83.10;;;;;;6278054;28;20048;-78
2021/12/18 09:28:43;;;;;;;17.55;6.97;;;6.00;82.70;;;;;;6276325;28;20056;-79
2021/12/18 09:31:45;;;;;;;17.40;8.07;;;6.00;82.60;;;;;;6276187;28;20049;-81
2021/12/18 09:34:46;;;;;;;14.60;6.68;;;6.00;82.70;;;;;;6277673;28;20053;-81
2021/12/18 09:37:50;;;;;;;16.20;6.72;;;5.90;82.90;;;;;;6276889;28;20147;-79
2021/12/18 09:40:52;;;;;;;18.08;6.30;;;5.90;83.80;;;;;;6277569;28;20059;-79
2021/12/18 09:43:55;;;;;;;14.90;6.78;;;6.00;82.90;;;;;;6277466;28;20076;-79
2021/12/18 09:46:57;;;;;;;19.60;8.18;;;6.10;82.70;;;;;;6276522;28;20056;-79
2021/12/18 09:49:59;;;;;;;18.77;7.55;;;6.30;81.80;;;;;;6267865;28;20049;-80
2021/12/18 09:53:01;;;;;;;17.60;7.40;;;6.40;81.40;;;;;;6276844;28;20048;-78
2021/12/18 09:56:05;;;;;;;19.10;7.05;;;6.40;81.10;;;;;;6276267;28;20083;-79
2021/12/18 09:59:08;;;;;;;15.32;7.55;;;6.40;81.30;;;;;;6276610;28;20142;-80
2021/12/18 10:02:10;;;;;;;16.15;7.53;;;6.50;80.90;;;;;;6273994;28;20506;-78
2021/12/18 10:05:20;;;;;;;25.40;6.63;;;6.50;80.80;;;;;;6250723;28;20045;-79
2021/12/18 10:08:22;;;;;;;15.98;7.43;;;6.60;80.80;;;;;;6252669;28;20048;-81
2021/12/18 10:11:23;;;;;;;18.60;7.25;;;6.60;80.30;;;;;;6252486;28;20176;-78
2021/12/18 10:14:35;;;;;;;16.58;7.25;;;6.50;80.20;;;;;;6250831;28;20148;-79
2021/12/18 10:17:39;;;;;;;12.73;6.20;;;6.60;81.00;;;;;;6291644;22;20056;-81
2021/12/18 10:20:41;;;;;;;16.65;7.20;;;6.70;80.70;;;;;;6273362;28;20048;-80
2021/12/18 10:23:44;;;;;;;12.05;6.07;;;6.80;79.90;;;;;;6275768;28;20064;-80
2021/12/18 10:26:48;;;;;;;14.45;7.25;;;6.80;79.60;;;;;;6275291;28;20064;-81
2021/12/18 10:29:54;;;;;;;13.73;6.75;;;6.90;79.70;;;;;;6275580;28;20049;-80
2021/12/18 10:32:59;;;;;;;14.98;6.78;;;6.90;79.20;;;;;;6275079;28;20041;-80
2021/12/18 10:36:02;;;;;;;14.75;5.95;;;7.00;78.90;;;;;;6274931;28;20068;-80
2021/12/18 10:39:05;;;;;;;22.02;10.50;;;6.90;78.80;;;;;;6275340;28;20557;-82
2021/12/18 10:42:19;;;;;;;14.93;6.70;;;6.90;79.10;;;;;;6250499;28;20041;-79
2021/12/18 10:45:24;;;;;;;15.70;8.18;;;6.90;78.90;;;;;;6249382;28;20124;-80
2021/12/18 10:48:26;;;;;;;16.38;6.95;;;7.00;78.80;;;;;;6245905;28;20046;-79
2021/12/18 10:51:30;;;;;;;17.75;8.18;;;7.10;78.60;;;;;;6252109;28;20045;-81
2021/12/18 10:54:36;;;;;;;15.32;7.05;;;7.20;78.50;;;;;;6250916;28;20046;-80
2021/12/18 10:57:38;;;;;;;18.60;8.63;;;7.30;78.00;;;;;;6255977;28;20065;-81
2021/12/18 11:00:55;;;;;;;16.38;7.82;;;7.30;77.70;;;;;;6274494;28;20057;-79
2021/12/18 11:03:57;;;;;;;20.60;8.50;;;7.20;77.60;;;;;;6266988;28;20045;-80
2021/12/18 11:06:59;;;;;;;21.67;9.13;;;7.30;78.10;;;;;;6234834;28;20125;-84
2021/12/18 11:10:38;;;;;;;12.13;6.35;;;7.20;77.40;;;;;;6236520;28;20500;-83
2021/12/18 11:13:41;;;;;;;15.88;6.93;;;7.20;77.70;;;;;;6226635;28;20487;-84
2021/12/18 11:16:48;;;;;;;13.60;6.72;;;7.20;77.90;;;;;;6236593;28;20456;-83
2021/12/18 11:19:50;;;;;;;13.27;6.32;;;7.20;77.80;;;;;;6267849;28;20130;-84
2021/12/18 11:22:52;;;;;;;12.80;6.25;;;7.00;77.80;;;;;;6277897;28;20049;-83
2021/12/18 11:25:56;;;;;;;17.45;7.10;;;6.90;78.20;;;;;;6276532;28;20538;-84
2021/12/18 11:28:59;;;;;;;18.13;7.93;;;6.80;78.60;;;;;;6275209;28;20106;-83
2021/12/18 11:32:04;;;;;;;17.73;6.60;;;7.00;78.70;;;;;;6274783;28;20060;-82
2021/12/18 11:35:08;;;;;;;15.40;7.65;;;7.10;78.30;;;;;;6274241;28;20072;-81
2021/12/18 11:38:14;;;;;;;13.05;5.95;;;7.10;78.10;;;;;;6274306;28;20190;-81
2021/12/18 11:41:18;;;;;;;16.70;7.90;;;7.10;79.40;;;;;;6273415;28;20056;-81
2021/12/18 11:44:32;;;;;;;16.88;8.30;;;7.10;78.60;;;;;;6280055;28;20041;-82
2021/12/18 11:47:37;;;;;;;16.50;6.32;;;7.20;78.40;;;;;;6273778;28;20048;-82
2021/12/18 11:50:40;;;;;;;18.67;7.55;;;7.30;78.00;;;;;;6259724;28;20069;-82
2021/12/18 11:53:42;;;;;;;13.10;6.82;;;7.30;77.40;;;;;;6253357;28;20049;-82
2021/12/18 11:56:49;;;;;;;11.55;6.68;;;7.40;77.50;;;;;;6249746;28;20059;-83
2021/12/18 11:59:51;;;;;;;12.25;6.80;;;7.50;77.10;;;;;;6250091;28;20105;-82
2021/12/18 12:02:56;;;;;;;12.70;6.18;;;7.40;76.70;;;;;;6250113;28;20059;-81
2021/12/18 12:05:59;;;;;;;11.52;6.35;;;7.30;77.50;;;;;;6232102;28;20069;-82
2021/12/18 12:09:24;;;;;;;13.25;5.25;;;7.20;77.30;;;;;;6225033;28;20107;-81
2021/12/18 12:12:51;;;;;;;11.25;5.55;;;7.10;78.00;;;;;;6225409;28;20042;-81
2021/12/18 12:15:53;;;;;;;14.20;8.23;;;7.10;78.00;;;;;;6224108;28;20056;-82
2021/12/18 12:19:06;;;;;;;15.18;7.13;;;7.20;78.00;;;;;;6264549;28;20557;-82
2021/12/18 12:22:12;;;;;;;19.33;7.97;;;7.20;78.00;;;;;;6274183;28;20524;-82
2021/12/18 12:25:16;;;;;;;14.52;5.97;;;7.30;78.20;;;;;;6274183;28;20053;-83
2021/12/18 12:28:21;;;;;;;12.23;5.15;;;7.30;78.10;;;;;;6276320;28;20167;-82
2021/12/18 12:31:24;;;;;;;18.05;6.22;;;7.30;78.10;;;;;;6275562;28;20068;-81
2021/12/18 12:34:31;;;;;;;13.93;7.10;;;7.10;78.10;;;;;;6267122;28;20037;-82
2021/12/18 12:37:38;;;;;;;16.33;7.45;;;7.00;78.90;;;;;;6248227;28;20049;-82
2021/12/18 12:40:40;;;;;;;73.03;28.42;;;7.10;78.90;;;;;;6249784;28;20081;-84
2021/12/18 12:43:42;;;;;;;45.80;22.08;;;7.20;78.70;;;;;;6249494;28;20045;-82
2021/12/18 12:46:45;;;;;;;20.63;9.85;;;7.20;78.70;;;;;;6249250;28;20174;-82
2021/12/18 12:49:51;;;;;;;14.00;6.80;;;7.40;78.30;;;;;;6270453;28;20041;-83
2021/12/18 12:52:55;;;;;;;13.52;6.93;;;7.40;77.60;;;;;;6279346;28;20052;-82
2021/12/18 12:55:57;;;;;;;8.57;4.20;;;7.40;77.80;;;;;;6278084;28;20064;-82
2021/12/18 12:59:23;;;;;;;14.13;5.68;;;7.40;77.70;;;;;;6280409;28;20059;-82
2021/12/18 13:02:25;;;;;;;11.05;4.05;;;7.30;77.70;;;;;;6278883;28;20049;-82
2021/12/18 13:05:30;;;;;;;8.57;4.43;;;7.20;78.00;;;;;;6275300;28;20511;-83
2021/12/18 13:08:36;;;;;;;12.75;5.18;;;7.10;78.30;;;;;;6236229;28;20046;-83
2021/12/18 13:11:39;;;;;;;12.68;6.10;;;7.00;78.70;;;;;;6231748;28;20132;-82
2021/12/18 13:14:43;;;;;;;10.32;4.15;;;7.10;78.60;;;;;;6229858;28;20057;-82
2021/12/18 13:17:44;;;;;;;13.15;5.95;;;7.00;78.80;;;;;;6251179;28;20056;-81
2021/12/18 13:20:55;;;;;;;13.32;5.32;;;6.90;79.30;;;;;;6276584;28;20053;-82
2021/12/18 13:23:59;;;;;;;12.90;4.60;;;6.90;79.40;;;;;;6278278;28;20415;-82
2021/12/18 13:27:10;;;;;;;14.30;5.93;;;6.90;79.60;;;;;;6279617;28;20063;-82
2021/12/18 13:30:14;;;;;;;12.15;5.10;;;6.80;79.60;;;;;;6277574;28;20144;-82
2021/12/18 13:33:16;;;;;;;13.15;6.28;;;6.70;80.00;;;;;;6278092;28;20055;-82
2021/12/18 13:36:20;;;;;;;9.98;4.93;;;6.70;80.30;;;;;;6277874;28;20033;-82
2021/12/18 13:39:24;;;;;;;14.45;6.30;;;6.80;80.40;;;;;;6278227;28;20092;-81
2021/12/18 13:42:25;;;;;;;12.82;5.22;;;6.80;80.10;;;;;;6277788;28;20045;-82
2021/12/18 13:45:28;;;;;;;18.08;6.55;;;6.80;80.20;;;;;;6276431;28;20055;-82
2021/12/18 13:48:31;;;;;;;12.52;4.90;;;6.70;80.50;;;;;;6264704;28;20045;-82
2021/12/18 13:51:34;;;;;;;10.77;5.68;;;6.80;80.30;;;;;;6278104;28;20049;-81
2021/12/18 13:54:38;;;;;;;13.93;5.15;;;6.80;80.50;;;;;;6278394;28;20045;-82
2021/12/18 13:57:40;;;;;;;11.57;6.30;;;6.80;80.40;;;;;;6277577;28;20057;-82
2021/12/18 14:01:04;;;;;;;8.73;4.72;;;6.70;80.40;;;;;;6277445;28;20051;-82
2021/12/18 14:04:14;;;;;;;10.75;5.53;;;6.70;80.70;;;;;;6279389;28;20125;-82
2021/12/18 14:07:19;;;;;;;16.98;5.85;;;6.80;80.60;;;;;;6258473;28;20048;-82
2021/12/18 14:10:22;;;;;;;14.95;4.65;;;6.90;80.80;;;;;;6226983;28;20439;-82
2021/12/18 14:13:23;;;;;;;9.45;4.43;;;6.90;80.50;;;;;;6227890;28;20046;-82
2021/12/18 14:16:25;;;;;;;13.05;5.88;;;6.80;80.80;;;;;;6233260;28;20041;-82
2021/12/18 14:19:31;;;;;;;10.95;5.70;;;6.70;81.10;;;;;;6271031;28;20056;-82
2021/12/18 14:22:36;;;;;;;11.48;5.35;;;6.80;81.20;;;;;;6277855;28;20074;-81
2021/12/18 14:25:37;;;;;;;14.45;5.30;;;6.90;81.50;;;;;;6277084;28;20045;-82
2021/12/18 14:28:40;;;;;;;8.85;4.55;;;6.90;80.80;;;;;;6259534;28;20053;-83
2021/12/18 14:31:45;;;;;;;9.13;4.47;;;6.90;80.60;;;;;;6227110;28;20507;-83
2021/12/18 14:34:47;;;;;;;11.15;5.32;;;6.70;81.00;;;;;;6228067;28;20046;-85
2021/12/18 14:37:57;;;;;;;10.60;4.55;;;6.60;81.40;;;;;;6228086;28;20555;-82
2021/12/18 14:41:00;;;;;;;11.38;5.75;;;6.70;81.60;;;;;;6226526;28;20050;-80
2021/12/18 14:44:02;;;;;;;9.85;4.93;;;6.70;81.60;;;;;;6231022;28;20127;-80
2021/12/18 14:47:17;;;;;;;10.77;5.05;;;6.60;81.70;;;;;;6245383;28;20126;-80
2021/12/18 14:50:20;;;;;;;11.95;4.45;;;6.60;82.00;;;;;;6258435;28;20076;-80
2021/12/18 14:53:24;;;;;;;10.95;5.82;;;6.50;82.20;;;;;;6252980;28;20046;-81
2021/12/18 14:56:26;;;;;;;9.73;4.90;;;6.50;82.20;;;;;;6252516;28;20064;-81
2021/12/18 14:59:28;;;;;;;18.23;5.45;;;6.60;82.40;;;;;;6253449;28;20049;-81
2021/12/18 15:02:29;;;;;;;11.40;5.45;;;6.60;82.30;;;;;;6253635;28;20049;-80
2021/12/18 15:05:52;;;;;;;7.90;3.90;;;6.60;82.30;;;;;;6255521;28;20046;-80
2021/12/18 15:08:59;;;;;;;11.43;5.00;;;6.40;82.30;;;;;;6238117;28;20109;-80
2021/12/18 15:12:02;;;;;;;12.48;6.20;;;6.40;82.60;;;;;;6228583;28;20099;-81
2021/12/18 15:15:13;;;;;;;13.40;6.03;;;6.50;83.40;;;;;;6232878;28;20060;-81
2021/12/18 15:18:15;;;;;;;15.13;7.38;;;6.50;82.40;;;;;;6259112;28;20056;-83
2021/12/18 15:21:18;;;;;;;17.75;10.18;;;6.50;82.80;;;;;;6280042;28;20579;-81
2021/12/18 15:24:22;;;;;;;15.20;7.38;;;6.50;82.50;;;;;;6284516;28;20065;-84
2021/12/18 15:27:24;;;;;;;14.75;8.25;;;6.40;82.60;;;;;;6290218;28;20140;-84
2021/12/18 15:30:25;;;;;;;13.35;6.95;;;6.30;82.80;;;;;;6287517;28;20069;-81
2021/12/18 15:33:27;;;;;;;22.27;10.32;;;6.30;82.90;;;;;;6286241;28;20613;-81
2021/12/18 15:36:29;;;;;;;20.63;12.68;;;6.40;83.20;;;;;;6282843;28;20041;-81
2021/12/18 15:39:33;;;;;;;16.20;6.70;;;6.40;83.00;;;;;;6281491;28;20071;-81
2021/12/18 15:42:35;;;;;;;12.00;6.78;;;6.40;82.90;;;;;;6280881;28;20048;-80
2021/12/18 15:45:37;;;;;;;11.70;5.00;;;6.40;82.80;;;;;;6278272;28;20088;-82
2021/12/18 15:48:39;;;;;;;16.30;6.85;;;6.40;82.90;;;;;;6272183;28;20071;-81
2021/12/18 15:51:41;;;;;;;12.25;5.82;;;6.30;83.10;;;;;;6289747;28;20108;-83
2021/12/18 15:54:44;;;;;;;14.38;7.63;;;6.40;83.30;;;;;;6289875;28;20140;-83
2021/12/18 15:57:46;;;;;;;10.80;5.18;;;6.40;83.10;;;;;;6285494;28;20041;-83
2021/12/18 16:00:49;;;;;;;14.50;6.35;;;6.40;83.00;;;;;;6285454;28;20260;-82
2021/12/18 16:03:51;;;;;;;20.65;9.35;;;6.30;83.00;;;;;;6284944;28;20041;-81
2021/12/18 16:06:53;;;;;;;14.70;7.35;;;6.20;83.70;;;;;;6284820;28;20161;-82
2021/12/18 16:09:56;;;;;;;19.15;8.10;;;6.10;83.80;;;;;;6259471;28;20045;-81
2021/12/18 16:12:59;;;;;;;15.88;7.03;;;6.10;84.30;;;;;;6252806;28;20633;-81
2021/12/18 16:16:01;;;;;;;17.77;7.40;;;6.20;84.00;;;;;;6275213;22;20105;-83
2021/12/18 16:19:06;;;;;;;21.58;9.20;;;6.10;83.90;;;;;;6244574;28;20045;-81
2021/12/18 16:22:11;;;;;;;20.77;10.38;;;6.10;84.50;;;;;;6252998;28;20056;-83